createdAt,value
2018-10-09T00:02:13.852Z,25.07
2018-10-09T00:04:42.472Z,34.27
2018-10-09T00:07:11.668Z,27.07
2018-10-09T00:09:40.272Z,25.63
2018-10-09T00:12:08.812Z,28.47
2018-10-09T00:14:37.618Z,25.70
2018-10-09T00:17:06.161Z,27.87
2018-10-09T00:19:34.683Z,27.70
2018-10-09T00:22:04.920Z,25.60
2018-10-09T00:24:33.442Z,27.87
2018-10-09T00:27:03.907Z,30.23
2018-10-09T00:29:32.447Z,32.63
2018-10-09T00:32:00.982Z,31.33
2018-10-09T00:34:29.574Z,29.30
2018-10-09T00:36:58.110Z,31.60
2018-10-09T00:39:26.627Z,28.37
2018-10-09T00:41:55.205Z,27.93
2018-10-09T00:44:23.744Z,29.10
2018-10-09T00:46:52.289Z,33.03
2018-10-09T00:49:20.821Z,27.07
2018-10-09T00:51:49.390Z,30.53
2018-10-09T00:54:17.965Z,27.13
2018-10-09T00:56:46.529Z,29.90
2018-10-09T00:59:15.252Z,29.27
2018-10-09T01:01:43.780Z,29.97
2018-10-09T01:04:12.350Z,35.80
2018-10-09T01:06:40.854Z,30.97
2018-10-09T01:09:09.935Z,31.30
2018-10-09T01:11:38.459Z,32.43
2018-10-09T01:14:07.030Z,32.10
2018-10-09T01:16:35.580Z,32.40
2018-10-09T01:19:05.847Z,32.57
2018-10-09T01:21:34.689Z,34.87
2018-10-09T01:24:04.506Z,36.13
2018-10-09T01:26:32.987Z,31.77
2018-10-09T01:29:04.280Z,32.53
2018-10-09T01:31:32.769Z,32.07
2018-10-09T01:34:02.807Z,34.30
2018-10-09T01:36:31.436Z,37.63
2018-10-09T01:38:59.965Z,34.27
2018-10-09T01:41:28.520Z,38.97
2018-10-09T01:43:57.069Z,32.83
2018-10-09T01:46:25.579Z,34.87
2018-10-09T01:48:54.140Z,35.00
2018-10-09T01:51:22.690Z,35.43
2018-10-09T01:53:51.264Z,38.60
2018-10-09T01:56:19.848Z,37.77
2018-10-09T01:58:48.455Z,37.30
2018-10-09T02:01:17.030Z,33.37
2018-10-09T02:03:46.642Z,38.20
2018-10-09T02:06:15.205Z,35.27
2018-10-09T02:08:43.751Z,38.33
2018-10-09T02:11:12.371Z,37.37
2018-10-09T02:13:40.976Z,44.07
2018-10-09T02:16:09.507Z,37.00
2018-10-09T02:18:38.037Z,37.93
2018-10-09T02:21:07.438Z,37.90
2018-10-09T02:23:35.966Z,41.87
2018-10-09T02:26:09.373Z,40.80
2018-10-09T02:28:37.904Z,40.67
2018-10-09T02:31:06.669Z,40.13
2018-10-09T02:33:36.277Z,35.83
2018-10-09T02:36:07.383Z,36.27
2018-10-09T02:38:36.177Z,41.97
2018-10-09T02:41:05.611Z,38.10
2018-10-09T02:43:34.172Z,41.40
2018-10-09T02:46:05.005Z,41.47
2018-10-09T02:48:33.558Z,43.53
2018-10-09T02:51:06.562Z,42.27
2018-10-09T02:53:35.212Z,39.17
2018-10-09T02:56:05.605Z,38.60
2018-10-09T02:58:35.112Z,44.20
2018-10-09T03:01:05.299Z,38.70
2018-10-09T03:03:33.858Z,37.93
2018-10-09T03:06:04.954Z,46.30
2018-10-09T03:08:33.506Z,42.33
2018-10-09T03:11:03.714Z,42.13
2018-10-09T03:13:32.432Z,40.13
2018-10-09T03:16:00.931Z,39.63
2018-10-09T03:18:29.445Z,44.20
2018-10-09T03:20:58.185Z,38.60
2018-10-09T03:23:26.753Z,40.27
2018-10-09T03:25:55.301Z,37.10
2018-10-09T03:28:23.873Z,38.17
2018-10-09T03:30:52.511Z,36.80
2018-10-09T03:33:21.025Z,38.73
2018-10-09T03:35:49.552Z,42.27
2018-10-09T03:38:18.120Z,38.13
2018-10-09T03:40:46.750Z,32.63
2018-10-09T03:43:15.316Z,40.23
2018-10-09T03:45:44.100Z,44.40
2018-10-09T03:48:12.668Z,36.50
2018-10-09T03:50:41.601Z,37.80
2018-10-09T03:53:10.165Z,46.70
2018-10-09T03:55:38.661Z,42.53
2018-10-09T03:58:07.557Z,39.17
2018-10-09T04:00:36.074Z,41.17
2018-10-09T04:03:05.243Z,45.70
2018-10-09T04:05:33.781Z,42.50
2018-10-09T04:08:03.703Z,43.37
2018-10-09T04:10:32.248Z,38.87
2018-10-09T04:13:00.822Z,34.70
2018-10-09T04:15:29.331Z,41.23
2018-10-09T04:17:58.153Z,36.40
2018-10-09T04:20:27.060Z,41.53
2018-10-09T04:22:55.556Z,40.90
2018-10-09T04:25:24.042Z,41.30
2018-10-09T04:27:52.860Z,40.93
2018-10-09T04:30:21.424Z,40.90
2018-10-09T04:32:50.581Z,41.10
2018-10-09T04:35:21.384Z,41.50
2018-10-09T04:37:50.299Z,40.07
2018-10-09T04:40:19.203Z,43.77
2018-10-09T04:42:47.819Z,40.77
2018-10-09T04:45:16.488Z,40.77
2018-10-09T04:47:45.046Z,49.37
2018-10-09T04:50:15.559Z,44.97
2018-10-09T04:52:44.124Z,46.10
2018-10-09T04:55:12.608Z,44.50
2018-10-09T04:57:41.164Z,42.30
2018-10-09T05:00:10.559Z,45.40
2018-10-09T05:02:39.104Z,45.03
2018-10-09T05:05:07.715Z,52.83
2018-10-09T05:07:36.316Z,44.23
2018-10-09T05:10:07.296Z,47.00
2018-10-09T05:12:35.934Z,44.40
2018-10-09T05:15:05.376Z,43.93
2018-10-09T05:17:38.522Z,45.10
2018-10-09T05:20:09.136Z,42.93
2018-10-09T05:22:37.686Z,49.83
2018-10-09T05:25:06.367Z,47.50
2018-10-09T05:27:34.926Z,52.23
2018-10-09T05:30:05.413Z,49.20
2018-10-09T05:32:34.164Z,48.17
2018-10-09T05:35:04.844Z,47.20
2018-10-09T05:37:33.431Z,49.67
2018-10-09T05:40:03.702Z,48.23
2018-10-09T05:42:32.307Z,46.47
2018-10-09T05:45:00.771Z,48.07
2018-10-09T05:47:29.557Z,46.23
2018-10-09T05:49:58.145Z,43.20
2018-10-09T05:52:26.994Z,54.77
2018-10-09T05:54:55.414Z,47.33
2018-10-09T05:57:24.301Z,52.53
2018-10-09T05:59:52.822Z,54.67
2018-10-09T06:02:21.366Z,58.83
2018-10-09T06:04:49.954Z,50.70
2018-10-09T06:07:18.772Z,52.37
2018-10-09T06:09:47.374Z,55.03
2018-10-09T06:12:16.005Z,51.10
2018-10-09T06:14:44.757Z,48.30
2018-10-09T06:17:13.390Z,47.30
2018-10-09T06:19:41.909Z,49.93
2018-10-09T06:22:10.433Z,55.53
2018-10-09T06:24:38.990Z,53.77
2018-10-09T06:27:08.259Z,51.23
2018-10-09T06:29:37.076Z,44.90
2018-10-09T06:32:05.667Z,46.83
2018-10-09T06:34:34.218Z,49.67
2018-10-09T06:37:04.832Z,46.20
2018-10-09T06:39:33.356Z,44.13
2018-10-09T06:42:02.779Z,49.30
2018-10-09T06:44:31.463Z,45.77
2018-10-09T06:47:00.729Z,42.47
2018-10-09T06:49:29.651Z,39.90
2018-10-09T06:51:58.139Z,41.90
2018-10-09T06:54:26.729Z,35.07
2018-10-09T06:56:55.988Z,36.87
2018-10-09T06:59:24.572Z,37.03
2018-10-09T07:01:53.308Z,43.10
2018-10-09T07:04:22.071Z,36.47
2018-10-09T07:06:50.753Z,36.60
2018-10-09T07:09:19.315Z,37.80
2018-10-09T07:11:47.837Z,35.90
2018-10-09T07:14:16.498Z,34.83
2018-10-09T07:16:45.494Z,35.63
2018-10-09T07:19:14.017Z,36.00
2018-10-09T07:21:42.627Z,35.00
2018-10-09T07:24:11.463Z,31.27
2018-10-09T07:26:40.106Z,33.43
2018-10-09T07:29:08.680Z,33.77
2018-10-09T07:31:37.265Z,36.03
2018-10-09T07:34:05.803Z,36.90
2018-10-09T07:36:34.352Z,32.83
2018-10-09T07:39:06.822Z,36.20
2018-10-09T07:41:35.493Z,35.33
2018-10-09T07:44:05.260Z,38.83
2018-10-09T07:46:33.993Z,33.90
2018-10-09T07:49:03.817Z,34.83
2018-10-09T07:51:32.352Z,32.30
2018-10-09T07:54:00.986Z,40.77
2018-10-09T07:56:29.532Z,32.80
2018-10-09T07:58:58.091Z,39.67
2018-10-09T08:01:26.688Z,36.67
2018-10-09T08:03:55.441Z,34.17
2018-10-09T08:06:23.996Z,34.67
2018-10-09T08:08:52.468Z,33.73
2018-10-09T08:11:21.049Z,36.40
2018-10-09T08:13:49.821Z,37.20
2018-10-09T08:16:18.436Z,37.90
2018-10-09T08:18:46.893Z,28.43
2018-10-09T08:21:16.546Z,31.87
2018-10-09T08:23:45.093Z,33.53
2018-10-09T08:26:13.911Z,32.03
2018-10-09T08:28:42.469Z,35.97
2018-10-09T08:31:11.011Z,33.83
2018-10-09T08:33:39.973Z,36.43
2018-10-09T08:36:08.489Z,34.10
2018-10-09T08:38:38.232Z,36.17
2018-10-09T08:41:07.071Z,37.50
2018-10-09T08:43:35.561Z,38.60
2018-10-09T08:46:05.167Z,35.10
2018-10-09T08:48:33.702Z,36.20
2018-10-09T08:51:03.494Z,33.53
2018-10-09T08:53:32.504Z,35.17
2018-10-09T08:56:02.757Z,34.67
2018-10-09T08:58:31.354Z,33.50
2018-10-09T09:01:00.112Z,34.50
2018-10-09T09:03:28.728Z,35.53
2018-10-09T09:05:57.224Z,34.83
2018-10-09T09:08:25.809Z,32.90
2018-10-09T09:10:54.369Z,30.67
2018-10-09T09:13:22.923Z,33.17
2018-10-09T09:15:51.565Z,32.73
2018-10-09T09:18:20.214Z,32.93
2018-10-09T09:20:48.843Z,30.33
2018-10-09T09:23:17.413Z,29.77
2018-10-09T09:25:45.952Z,29.07
2018-10-09T09:28:14.476Z,29.30
2018-10-09T09:30:42.968Z,38.20
2018-10-09T09:33:11.504Z,28.53
2018-10-09T09:35:40.123Z,27.93
2018-10-09T09:38:08.656Z,27.47
2018-10-09T09:40:37.212Z,26.83
2018-10-09T09:43:06.364Z,31.60
2018-10-09T09:45:34.931Z,26.53
2018-10-09T09:48:05.595Z,29.43
2018-10-09T09:50:35.776Z,28.07
2018-10-09T09:53:05.343Z,25.63
2018-10-09T09:55:33.868Z,29.63
2018-10-09T09:58:03.802Z,25.53
2018-10-09T10:00:38.122Z,27.63
2018-10-09T10:03:06.650Z,27.03
2018-10-09T10:05:35.651Z,25.30
2018-10-09T10:08:04.757Z,24.63
2018-10-09T10:10:33.244Z,24.73
2018-10-09T10:13:02.821Z,26.43
2018-10-09T10:15:31.750Z,24.07
2018-10-09T10:18:00.458Z,28.53
2018-10-09T10:20:28.958Z,24.63
2018-10-09T10:22:57.503Z,22.87
2018-10-09T10:25:26.047Z,26.27
2018-10-09T10:27:54.644Z,21.13
2018-10-09T10:30:23.272Z,21.23
2018-10-09T10:32:51.849Z,18.57
2018-10-09T10:35:21.413Z,19.80
2018-10-09T10:37:50.001Z,18.33
2018-10-09T10:40:18.557Z,17.53
2018-10-09T10:42:47.061Z,18.80
2018-10-09T10:45:15.698Z,17.47
2018-10-09T10:47:44.282Z,15.57
2018-10-09T10:50:14.238Z,21.23
2018-10-09T10:52:42.733Z,17.80
2018-10-09T10:55:11.251Z,18.17
2018-10-09T10:57:39.953Z,19.40
2018-10-09T11:00:08.978Z,20.13
2018-10-09T11:02:37.550Z,14.20
2018-10-09T11:05:06.214Z,16.90
2018-10-09T11:07:36.432Z,14.40
2018-10-09T11:10:06.211Z,17.30
2018-10-09T11:12:35.464Z,16.77
2018-10-09T11:15:05.677Z,24.73
2018-10-09T11:17:34.178Z,15.83
2018-10-09T11:20:03.875Z,17.83
2018-10-09T11:22:32.447Z,17.53
2018-10-09T11:25:02.705Z,16.90
2018-10-09T11:27:31.308Z,20.20
2018-10-09T11:29:59.899Z,19.17
2018-10-09T11:32:28.441Z,16.33
2018-10-09T11:34:57.004Z,14.27
2018-10-09T11:37:25.864Z,18.93
2018-10-09T11:39:54.938Z,15.43
2018-10-09T11:42:23.997Z,16.97
2018-10-09T11:44:56.129Z,19.33
2018-10-09T11:47:24.704Z,15.97
2018-10-09T11:49:53.258Z,18.90
2018-10-09T11:52:21.751Z,16.83
2018-10-09T11:54:50.298Z,21.73
2018-10-09T11:57:18.854Z,15.60
2018-10-09T11:59:47.371Z,17.43
2018-10-09T12:02:15.922Z,23.10
2018-10-09T12:04:44.730Z,19.57
2018-10-09T12:07:13.722Z,22.10
2018-10-09T12:09:44.828Z,17.63
2018-10-09T12:12:13.588Z,19.60
2018-10-09T12:14:42.122Z,20.10
2018-10-09T12:17:11.485Z,19.97
2018-10-09T12:19:40.109Z,19.47
2018-10-09T12:22:08.825Z,19.57
2018-10-09T12:24:37.378Z,14.93
2018-10-09T12:27:05.976Z,16.77
2018-10-09T12:29:34.845Z,15.87
2018-10-09T12:32:05.407Z,16.67
2018-10-09T12:34:34.127Z,20.37
2018-10-09T12:37:04.272Z,16.73
2018-10-09T12:39:32.789Z,16.00
2018-10-09T12:42:02.774Z,17.37
2018-10-09T12:44:31.314Z,15.37
2018-10-09T12:46:59.871Z,14.87
2018-10-09T12:49:28.433Z,19.17
2018-10-09T12:51:57.135Z,16.70
2018-10-09T12:54:25.833Z,18.30
2018-10-09T12:56:54.351Z,17.50
2018-10-09T12:59:22.871Z,18.47
2018-10-09T13:01:51.446Z,19.50
2018-10-09T13:04:20.204Z,17.50
2018-10-09T13:06:48.740Z,15.13
2018-10-09T13:09:17.289Z,19.03
2018-10-09T13:11:46.195Z,22.00
2018-10-09T13:14:14.683Z,14.13
2018-10-09T13:16:43.201Z,14.80
2018-10-09T13:19:11.777Z,13.60
2018-10-09T13:21:41.104Z,14.67
2018-10-09T13:24:09.458Z,15.13
2018-10-09T13:26:38.094Z,15.13
2018-10-09T13:29:06.618Z,15.27
2018-10-09T13:31:35.152Z,16.53
2018-10-09T13:34:07.941Z,13.53
2018-10-09T13:36:36.710Z,17.90
2018-10-09T13:39:08.463Z,13.20
2018-10-09T13:41:37.013Z,15.47
2018-10-09T13:44:05.596Z,14.40
2018-10-09T13:46:34.070Z,15.13
2018-10-09T13:49:04.041Z,13.47
2018-10-09T13:51:32.538Z,13.93
2018-10-09T13:54:03.044Z,15.17
2018-10-09T13:56:31.677Z,14.90
2018-10-09T13:59:00.614Z,17.23
2018-10-09T14:01:29.188Z,16.60
2018-10-09T14:03:57.725Z,13.50
2018-10-09T14:06:26.666Z,13.30
2018-10-09T14:08:55.164Z,15.57
2018-10-09T14:11:23.676Z,15.57
2018-10-09T14:13:52.219Z,16.60
2018-10-09T14:16:20.802Z,15.47
2018-10-09T14:18:49.297Z,16.90
2018-10-09T14:21:17.898Z,13.57
2018-10-09T14:23:46.456Z,17.47
2018-10-09T14:26:15.338Z,17.17
2018-10-09T14:28:43.864Z,18.63
2018-10-09T14:31:12.409Z,18.23
2018-10-09T14:33:41.043Z,16.53
2018-10-09T14:36:09.936Z,14.33
2018-10-09T14:38:38.504Z,14.63
2018-10-09T14:41:07.051Z,16.53
2018-10-09T14:43:35.590Z,20.40
2018-10-09T14:46:05.591Z,17.80
2018-10-09T14:48:34.149Z,16.40
2018-10-09T14:51:04.054Z,16.83
2018-10-09T14:53:32.797Z,15.90
2018-10-09T14:56:02.735Z,16.60
2018-10-09T14:58:31.266Z,15.23
2018-10-09T15:00:59.821Z,17.20
2018-10-09T15:03:28.980Z,20.33
2018-10-09T15:05:57.573Z,18.87
2018-10-09T15:08:26.090Z,19.97
2018-10-09T15:10:54.629Z,21.03
2018-10-09T15:13:23.176Z,21.90
2018-10-09T15:15:52.073Z,25.60
2018-10-09T15:18:20.618Z,22.77
2018-10-09T15:20:50.531Z,21.43
2018-10-09T15:23:19.049Z,25.10
2018-10-09T15:25:47.606Z,23.37
2018-10-09T15:28:16.186Z,23.03
2018-10-09T15:30:47.703Z,25.00
2018-10-09T15:33:17.056Z,25.67
2018-10-09T15:35:45.690Z,31.03
2018-10-09T15:38:14.214Z,26.37
2018-10-09T15:40:43.216Z,24.50
2018-10-09T15:43:11.726Z,27.60
2018-10-09T15:45:40.304Z,28.17
2018-10-09T15:48:08.988Z,30.30
2018-10-09T15:50:37.585Z,29.70
2018-10-09T15:53:06.175Z,26.53
2018-10-09T15:55:35.437Z,31.83
2018-10-09T15:58:05.170Z,27.73
2018-10-09T16:00:37.974Z,30.33
2018-10-09T16:03:07.228Z,33.53
2018-10-09T16:05:35.750Z,33.40
2018-10-09T16:08:05.669Z,32.67
2018-10-09T16:10:34.598Z,32.93
2018-10-09T16:13:04.537Z,33.83
2018-10-09T16:15:33.225Z,35.07
2018-10-09T16:18:03.186Z,37.53
2018-10-09T16:20:31.739Z,32.67
2018-10-09T16:23:00.278Z,35.53
2018-10-09T16:25:28.832Z,38.50
2018-10-09T16:27:57.464Z,33.17
2018-10-09T16:30:25.962Z,37.07
2018-10-09T16:32:54.581Z,40.10
2018-10-09T16:35:23.169Z,40.07
2018-10-09T16:37:52.154Z,38.37
2018-10-09T16:40:20.848Z,38.30
2018-10-09T16:42:49.364Z,40.50
2018-10-09T16:45:18.960Z,38.57
2018-10-09T16:47:47.524Z,36.40
2018-10-09T16:50:16.033Z,33.77
2018-10-09T16:52:44.705Z,35.33
2018-10-09T16:55:13.217Z,42.30
2018-10-09T16:57:41.752Z,38.07
2018-10-09T17:00:10.349Z,35.77
2018-10-09T17:02:38.946Z,33.57
2018-10-09T17:05:07.557Z,40.20
2018-10-09T17:07:36.100Z,40.80
2018-10-09T17:10:06.718Z,37.43
2018-10-09T17:12:35.519Z,38.10
2018-10-09T17:15:06.846Z,39.23
2018-10-09T17:17:35.362Z,44.17
2018-10-09T17:20:06.538Z,40.73
2018-10-09T17:22:35.462Z,39.93
2018-10-09T17:25:05.845Z,44.30
2018-10-09T17:27:34.851Z,40.77
2018-10-09T17:30:04.998Z,47.63
2018-10-09T17:32:33.588Z,47.47
2018-10-09T17:35:03.830Z,49.10
2018-10-09T17:37:32.366Z,51.30
2018-10-09T17:40:05.305Z,48.77
2018-10-09T17:42:33.872Z,52.20
2018-10-09T17:45:04.180Z,45.67
2018-10-09T17:47:32.781Z,45.50
2018-10-09T17:50:04.993Z,47.70
2018-10-09T17:52:33.534Z,46.17
2018-10-09T17:55:03.975Z,47.13
2018-10-09T17:57:32.808Z,40.83
2018-10-09T18:00:03.167Z,45.63
2018-10-09T18:02:31.790Z,41.23
2018-10-09T18:05:04.216Z,41.50
2018-10-09T18:07:32.727Z,48.37
2018-10-09T18:10:03.294Z,44.40
2018-10-09T18:12:31.781Z,40.73
2018-10-09T18:15:00.345Z,43.63
2018-10-09T18:17:28.961Z,41.60
2018-10-09T18:19:57.794Z,46.00
2018-10-09T18:22:26.369Z,44.33
2018-10-09T18:24:54.940Z,40.80
2018-10-09T18:27:23.628Z,47.07
2018-10-09T18:29:52.366Z,44.23
2018-10-09T18:32:20.936Z,42.40
2018-10-09T18:34:49.448Z,42.70
2018-10-09T18:37:18.144Z,42.13
2018-10-09T18:39:46.707Z,42.60
2018-10-09T18:42:15.261Z,48.03
2018-10-09T18:44:43.799Z,45.20
2018-10-09T18:47:17.667Z,46.57
2018-10-09T18:49:46.226Z,47.27
2018-10-09T18:52:15.293Z,49.83
2018-10-09T18:54:43.985Z,44.63
2018-10-09T18:57:12.879Z,47.30
2018-10-09T18:59:41.554Z,46.93
2018-10-09T19:02:10.430Z,47.10
2018-10-09T19:04:39.333Z,48.53
2018-10-09T19:07:07.939Z,41.93
2018-10-09T19:09:36.644Z,41.60
2018-10-09T19:12:05.766Z,45.00
2018-10-09T19:14:35.085Z,41.73
2018-10-09T19:17:05.745Z,45.60
2018-10-09T19:19:34.653Z,42.13
2018-10-09T19:22:05.105Z,40.37
2018-10-09T19:24:33.705Z,46.07
2018-10-09T19:27:07.523Z,44.50
2018-10-09T19:29:36.386Z,42.80
2018-10-09T19:32:05.189Z,44.27
2018-10-09T19:34:33.766Z,42.30
2018-10-09T19:37:03.966Z,40.27
2018-10-09T19:39:32.530Z,46.23
2018-10-09T19:42:02.929Z,47.87
2018-10-09T19:44:31.454Z,42.63
2018-10-09T19:47:00.061Z,40.20
2018-10-09T19:49:28.638Z,38.33
2018-10-09T19:51:57.228Z,43.83
2018-10-09T19:54:26.886Z,47.30
2018-10-09T19:56:55.588Z,46.60
2018-10-09T19:59:24.510Z,45.97
2018-10-09T20:01:53.164Z,46.33
2018-10-09T20:04:21.829Z,47.40
2018-10-09T20:06:50.492Z,43.63
2018-10-09T20:09:19.027Z,42.63
2018-10-09T20:11:47.639Z,43.03
2018-10-09T20:14:16.396Z,45.60
2018-10-09T20:16:44.949Z,50.43
2018-10-09T20:19:13.566Z,46.63
2018-10-09T20:21:42.339Z,48.87
2018-10-09T20:24:10.873Z,49.13
2018-10-09T20:26:39.551Z,45.23
2018-10-09T20:29:08.299Z,51.00
2018-10-09T20:31:36.824Z,44.90
2018-10-09T20:34:05.371Z,47.73
2018-10-09T20:36:34.147Z,51.40
2018-10-09T20:39:05.146Z,60.00
2018-10-09T20:41:34.125Z,52.87
2018-10-09T20:44:04.102Z,51.40
2018-10-09T20:46:32.675Z,48.10
2018-10-09T20:49:03.508Z,48.77
2018-10-09T20:51:32.033Z,47.77
2018-10-09T20:54:00.605Z,43.63
2018-10-09T20:56:29.200Z,47.93
2018-10-09T20:58:57.854Z,44.50
2018-10-09T21:01:26.697Z,41.33
2018-10-09T21:03:55.641Z,44.80
2018-10-09T21:06:24.212Z,40.73
2018-10-09T21:08:52.867Z,42.83
2018-10-09T21:11:21.712Z,41.17
2018-10-09T21:13:50.241Z,38.20
2018-10-09T21:16:18.909Z,41.47
2018-10-09T21:18:47.594Z,43.03
2018-10-09T21:21:16.116Z,41.73
2018-10-09T21:23:44.621Z,37.53
2018-10-09T21:26:13.170Z,41.97
2018-10-09T21:28:41.749Z,39.00
2018-10-09T21:31:10.361Z,43.80
2018-10-09T21:33:38.938Z,43.40
2018-10-09T21:36:08.342Z,45.40
2018-10-09T21:38:36.911Z,42.27
2018-10-09T21:41:05.451Z,42.57
2018-10-09T21:43:34.002Z,39.43
2018-10-09T21:46:04.630Z,41.70
2018-10-09T21:48:33.177Z,40.43
2018-10-09T21:51:02.785Z,43.17
2018-10-09T21:53:31.440Z,41.50
2018-10-09T21:56:00.047Z,44.53
2018-10-09T21:58:28.605Z,36.40
2018-10-09T22:01:03.290Z,37.10
2018-10-09T22:03:31.793Z,42.80
2018-10-09T22:06:00.418Z,39.70
2018-10-09T22:08:35.099Z,38.40
2018-10-09T22:11:05.604Z,45.10
2018-10-09T22:13:34.121Z,42.67
2018-10-09T22:16:03.685Z,38.37
2018-10-09T22:18:32.221Z,42.87
2018-10-09T22:21:00.862Z,41.23
2018-10-09T22:23:29.392Z,44.40
2018-10-09T22:25:58.287Z,42.40
2018-10-09T22:28:26.825Z,39.63
2018-10-09T22:30:55.417Z,41.63
2018-10-09T22:33:24.259Z,41.87
2018-10-09T22:35:52.768Z,40.30
2018-10-09T22:38:21.374Z,44.13
2018-10-09T22:40:51.717Z,39.33
2018-10-09T22:43:20.536Z,41.60
2018-10-09T22:45:49.071Z,40.60
2018-10-09T22:48:17.586Z,39.03
2018-10-09T22:50:46.495Z,39.17
2018-10-09T22:53:15.031Z,39.60
2018-10-09T22:55:43.578Z,37.83
2018-10-09T22:58:12.098Z,43.20
2018-10-09T23:00:40.642Z,41.17
2018-10-09T23:03:09.213Z,36.30
2018-10-09T23:05:37.876Z,34.50
2018-10-09T23:08:06.534Z,38.00
2018-10-09T23:10:35.075Z,40.27
2018-10-09T23:13:06.191Z,42.27
2018-10-09T23:15:34.793Z,42.27
2018-10-09T23:18:05.009Z,39.30
2018-10-09T23:20:33.726Z,35.43
2018-10-09T23:23:04.173Z,41.70
2018-10-09T23:25:32.717Z,37.43
2018-10-09T23:28:05.348Z,38.40
2018-10-09T23:30:33.842Z,36.17
2018-10-09T23:33:04.024Z,35.63
2018-10-09T23:35:32.605Z,39.67
2018-10-09T23:38:02.887Z,45.53
2018-10-09T23:40:31.423Z,39.87
2018-10-09T23:42:59.973Z,34.90
2018-10-09T23:45:28.814Z,34.43
2018-10-09T23:48:03.149Z,41.30
2018-10-09T23:50:31.684Z,33.80
2018-10-09T23:53:00.210Z,37.40
2018-10-09T23:55:28.984Z,38.83
2018-10-09T23:57:57.507Z,41.43
